createdAt,value
2018-07-14T00:00:37.717Z,3.45
2018-07-14T00:03:06.357Z,3.67
2018-07-14T00:05:34.628Z,3.62
2018-07-14T00:08:02.940Z,3.42
2018-07-14T00:10:32.448Z,3.92
2018-07-14T00:13:01.937Z,3.50
2018-07-14T00:15:30.203Z,3.17
2018-07-14T00:17:58.609Z,3.40
2018-07-14T00:20:26.933Z,3.72
2018-07-14T00:22:55.223Z,3.58
2018-07-14T00:25:28.990Z,3.42
2018-07-14T00:27:57.350Z,6.10
2018-07-14T00:30:25.737Z,4.37
2018-07-14T00:32:54.769Z,3.77
2018-07-14T00:35:23.137Z,3.35
2018-07-14T00:37:51.396Z,3.42
2018-07-14T00:40:19.792Z,3.22
2018-07-14T00:42:48.037Z,3.60
2018-07-14T00:45:16.429Z,3.30
2018-07-14T00:47:44.888Z,3.87
2018-07-14T00:50:13.224Z,3.15
2018-07-14T00:52:41.641Z,3.30
2018-07-14T00:55:10.497Z,4.15
2018-07-14T00:57:38.821Z,3.37
2018-07-14T01:00:07.134Z,3.30
2018-07-14T01:02:39.100Z,3.35
2018-07-14T01:05:07.471Z,3.17
2018-07-14T01:07:37.100Z,3.92
2018-07-14T01:10:05.355Z,3.47
2018-07-14T01:12:33.817Z,3.87
2018-07-14T01:15:02.947Z,3.45
2018-07-14T01:17:31.212Z,4.83
2018-07-14T01:19:59.597Z,3.42
2018-07-14T01:22:28.294Z,3.30
2018-07-14T01:24:56.584Z,3.10
2018-07-14T01:27:24.914Z,3.80
2018-07-14T01:29:53.743Z,3.10
2018-07-14T01:32:22.190Z,3.47
2018-07-14T01:34:50.462Z,3.92
2018-07-14T01:37:18.799Z,3.40
2018-07-14T01:39:47.112Z,3.98
2018-07-14T01:42:15.419Z,3.22
2018-07-14T01:44:43.740Z,3.50
2018-07-14T01:47:12.181Z,3.52
2018-07-14T01:49:40.422Z,3.50
2018-07-14T01:52:09.556Z,4.35
2018-07-14T01:54:37.860Z,3.67
2018-07-14T01:57:06.122Z,3.20
2018-07-14T01:59:34.498Z,3.47
2018-07-14T02:02:02.797Z,3.27
2018-07-14T02:04:31.146Z,3.40
2018-07-14T02:06:59.473Z,3.20
2018-07-14T02:09:29.662Z,3.67
2018-07-14T02:11:58.024Z,3.58
2018-07-14T02:14:26.306Z,3.60
2018-07-14T02:16:54.771Z,4.08
2018-07-14T02:19:23.060Z,3.98
2018-07-14T02:21:51.404Z,3.37
2018-07-14T02:24:19.682Z,3.77
2018-07-14T02:26:47.966Z,3.52
2018-07-14T02:29:17.035Z,3.40
2018-07-14T02:31:45.428Z,3.77
2018-07-14T02:34:13.688Z,3.98
2018-07-14T02:36:41.838Z,3.37
2018-07-14T02:39:10.199Z,4.25
2018-07-14T02:41:38.554Z,3.30
2018-07-14T02:44:07.167Z,3.50
2018-07-14T02:46:35.603Z,3.95
2018-07-14T02:49:03.867Z,3.67
2018-07-14T02:51:33.230Z,3.47
2018-07-14T02:54:01.464Z,3.75
2018-07-14T02:56:29.682Z,3.87
2018-07-14T02:58:57.955Z,4.10
2018-07-14T03:01:26.293Z,5.15
2018-07-14T03:03:54.519Z,3.77
2018-07-14T03:06:22.886Z,3.87
2018-07-14T03:08:52.898Z,3.83
2018-07-14T03:11:21.122Z,3.40
2018-07-14T03:13:50.325Z,3.33
2018-07-14T03:16:18.582Z,3.60
2018-07-14T03:18:46.798Z,3.90
2018-07-14T03:21:15.058Z,3.80
2018-07-14T03:23:43.297Z,4.10
2018-07-14T03:26:11.612Z,4.47
2018-07-14T03:28:40.523Z,3.42
2018-07-14T03:31:08.734Z,4.35
2018-07-14T03:33:36.964Z,4.20
2018-07-14T03:36:05.485Z,3.77
2018-07-14T03:38:33.784Z,4.55
2018-07-14T03:41:02.022Z,3.72
2018-07-14T03:43:30.389Z,3.62
2018-07-14T03:45:58.623Z,4.10
2018-07-14T03:48:26.846Z,3.65
2018-07-14T03:50:55.585Z,3.50
2018-07-14T03:53:23.835Z,3.72
2018-07-14T03:55:52.048Z,3.83
2018-07-14T03:58:20.397Z,4.00
2018-07-14T04:00:48.697Z,3.50
2018-07-14T04:03:16.940Z,3.90
2018-07-14T04:05:45.146Z,3.50
2018-07-14T04:08:15.161Z,3.80
2018-07-14T04:10:43.926Z,4.62
2018-07-14T04:13:12.259Z,3.70
2018-07-14T04:15:40.590Z,4.00
2018-07-14T04:18:08.858Z,4.05
2018-07-14T04:20:37.606Z,4.35
2018-07-14T04:23:05.855Z,4.00
2018-07-14T04:25:34.707Z,3.83
2018-07-14T04:28:02.968Z,3.77
2018-07-14T04:30:31.262Z,4.30
2018-07-14T04:32:59.958Z,3.50
2018-07-14T04:35:28.201Z,3.98
2018-07-14T04:37:56.440Z,3.72
2018-07-14T04:40:25.129Z,3.80
2018-07-14T04:42:53.386Z,4.05
2018-07-14T04:45:21.690Z,3.80
2018-07-14T04:47:51.037Z,3.50
2018-07-14T04:50:19.271Z,4.10
2018-07-14T04:52:47.544Z,4.12
2018-07-14T04:55:20.685Z,4.17
2018-07-14T04:57:48.985Z,4.47
2018-07-14T05:00:17.546Z,4.28
2018-07-14T05:02:45.770Z,3.30
2018-07-14T05:05:14.006Z,3.67
2018-07-14T05:07:44.098Z,3.72
2018-07-14T05:10:12.402Z,5.65
2018-07-14T05:12:40.650Z,4.00
2018-07-14T05:15:09.051Z,4.10
2018-07-14T05:17:37.358Z,3.87
2018-07-14T05:20:05.631Z,4.10
2018-07-14T05:22:34.186Z,3.80
2018-07-14T05:25:02.504Z,4.25
2018-07-14T05:27:30.722Z,4.03
2018-07-14T05:29:59.423Z,3.80
2018-07-14T05:32:27.672Z,4.12
2018-07-14T05:34:55.931Z,4.15
2018-07-14T05:37:24.659Z,5.35
2018-07-14T05:39:52.957Z,4.33
2018-07-14T05:42:21.181Z,4.05
2018-07-14T05:44:49.572Z,3.70
2018-07-14T05:47:17.807Z,3.55
2018-07-14T05:49:45.773Z,3.62
2018-07-14T05:52:14.923Z,6.33
2018-07-14T05:54:43.171Z,3.50
2018-07-14T05:57:11.477Z,4.42
2018-07-14T05:59:40.029Z,4.95
2018-07-14T06:02:08.290Z,7.67
2018-07-14T06:04:36.517Z,8.30
2018-07-14T06:07:04.903Z,13.72
2018-07-14T06:09:35.336Z,15.93
2018-07-14T06:12:03.621Z,12.47
2018-07-14T06:14:32.198Z,11.70
2018-07-14T06:17:00.440Z,13.50
2018-07-14T06:19:28.816Z,10.65
2018-07-14T06:21:57.353Z,6.67
2018-07-14T06:24:25.629Z,10.15
2018-07-14T06:26:53.877Z,12.23
2018-07-14T06:29:22.883Z,12.18
2018-07-14T06:31:51.255Z,11.95
2018-07-14T06:34:19.594Z,11.83
2018-07-14T06:36:48.086Z,15.72
2018-07-14T06:39:16.397Z,11.45
2018-07-14T06:41:44.682Z,11.55
2018-07-14T06:44:13.048Z,14.80
2018-07-14T06:46:41.318Z,8.28
2018-07-14T06:49:09.747Z,16.42
2018-07-14T06:51:39.583Z,8.38
2018-07-14T06:54:07.599Z,11.80
2018-07-14T06:56:35.819Z,13.45
2018-07-14T06:59:04.355Z,8.73
2018-07-14T07:01:32.343Z,6.92
2018-07-14T07:04:00.624Z,7.58
2018-07-14T07:06:29.680Z,8.88
2018-07-14T07:08:59.306Z,13.88
2018-07-14T07:11:27.554Z,10.48
2018-07-14T07:13:56.362Z,11.48
2018-07-14T07:16:24.618Z,6.12
2018-07-14T07:18:52.845Z,7.92
2018-07-14T07:21:21.417Z,8.80
2018-07-14T07:23:49.687Z,15.83
2018-07-14T07:26:17.929Z,11.15
2018-07-14T07:28:46.483Z,10.53
2018-07-14T07:31:14.796Z,10.03
2018-07-14T07:33:43.050Z,10.03
2018-07-14T07:36:11.382Z,7.87
2018-07-14T07:38:39.655Z,11.20
2018-07-14T07:41:07.897Z,8.83
2018-07-14T07:43:36.923Z,9.33
2018-07-14T07:46:05.199Z,9.58
2018-07-14T07:48:33.475Z,12.63
2018-07-14T07:51:02.170Z,11.70
2018-07-14T07:53:30.458Z,12.88
2018-07-14T07:55:58.733Z,11.95
2018-07-14T07:58:27.107Z,7.70
2018-07-14T08:00:55.367Z,8.40
2018-07-14T08:03:24.044Z,8.60
2018-07-14T08:05:53.547Z,7.08
2018-07-14T08:08:23.757Z,12.37
2018-07-14T08:10:52.097Z,11.95
2018-07-14T08:13:20.750Z,11.73
2018-07-14T08:15:49.083Z,8.55
2018-07-14T08:18:17.378Z,6.55
2018-07-14T08:20:45.708Z,9.75
2018-07-14T08:23:14.063Z,8.50
2018-07-14T08:25:42.336Z,9.45
2018-07-14T08:28:10.936Z,14.25
2018-07-14T08:30:39.207Z,10.90
2018-07-14T08:33:07.470Z,10.45
2018-07-14T08:35:35.807Z,16.60
2018-07-14T08:38:04.098Z,13.18
2018-07-14T08:40:32.369Z,16.48
2018-07-14T08:43:00.689Z,12.37
2018-07-14T08:45:28.967Z,14.63
2018-07-14T08:47:57.245Z,9.90
2018-07-14T08:50:26.255Z,14.65
2018-07-14T08:52:54.580Z,12.28
2018-07-14T08:55:22.862Z,14.30
2018-07-14T08:57:51.874Z,10.48
2018-07-14T09:00:20.152Z,11.53
2018-07-14T09:02:48.459Z,10.18
2018-07-14T09:05:16.804Z,9.73
2018-07-14T09:07:47.245Z,10.78
2018-07-14T09:10:15.870Z,10.08
2018-07-14T09:12:45.538Z,11.53
2018-07-14T09:15:13.808Z,11.45
2018-07-14T09:17:42.075Z,12.53
2018-07-14T09:20:10.387Z,12.33
2018-07-14T09:22:38.708Z,10.40
2018-07-14T09:25:06.989Z,10.53
2018-07-14T09:27:35.526Z,10.03
2018-07-14T09:30:04.019Z,11.80
2018-07-14T09:32:32.441Z,13.30
2018-07-14T09:35:01.273Z,10.20
2018-07-14T09:37:29.523Z,9.63
2018-07-14T09:39:57.869Z,9.93
2018-07-14T09:42:26.314Z,9.23
2018-07-14T09:44:54.595Z,14.03
2018-07-14T09:47:22.900Z,7.15
2018-07-14T09:49:51.766Z,12.33
2018-07-14T09:52:20.032Z,10.58
2018-07-14T09:54:48.313Z,10.23
2018-07-14T09:57:16.880Z,9.23
2018-07-14T09:59:45.138Z,9.98
2018-07-14T10:02:13.411Z,11.68
2018-07-14T10:04:41.761Z,11.65
2018-07-14T10:07:13.783Z,12.30
2018-07-14T10:09:42.211Z,10.55
2018-07-14T10:12:11.984Z,12.30
2018-07-14T10:14:40.356Z,11.70
2018-07-14T10:17:08.734Z,10.43
2018-07-14T10:19:37.203Z,11.38
2018-07-14T10:22:05.489Z,11.93
2018-07-14T10:24:33.840Z,7.40
2018-07-14T10:27:02.582Z,10.20
2018-07-14T10:29:30.906Z,8.23
2018-07-14T10:31:59.283Z,10.23
2018-07-14T10:34:27.690Z,10.98
2018-07-14T10:36:56.038Z,12.40
2018-07-14T10:39:24.359Z,7.92
2018-07-14T10:41:53.193Z,7.45
2018-07-14T10:44:21.546Z,6.67
2018-07-14T10:46:49.924Z,7.60
2018-07-14T10:49:18.481Z,8.65
2018-07-14T10:51:46.867Z,7.80
2018-07-14T10:54:15.271Z,8.70
2018-07-14T10:56:43.833Z,6.60
2018-07-14T10:59:12.244Z,6.92
2018-07-14T11:01:40.593Z,7.55
2018-07-14T11:04:09.266Z,8.43
2018-07-14T11:06:37.747Z,7.03
2018-07-14T11:09:08.465Z,6.58
2018-07-14T11:11:37.073Z,7.10
2018-07-14T11:14:05.646Z,10.32
2018-07-14T11:16:34.335Z,10.43
2018-07-14T11:19:02.921Z,7.40
2018-07-14T11:21:31.247Z,8.43
2018-07-14T11:23:59.583Z,8.63
2018-07-14T11:26:28.602Z,9.00
2018-07-14T11:28:56.874Z,15.88
2018-07-14T11:31:25.170Z,11.60
2018-07-14T11:33:54.028Z,10.00
2018-07-14T11:36:22.389Z,9.05
2018-07-14T11:38:50.793Z,15.68
2018-07-14T11:41:19.999Z,14.15
2018-07-14T11:43:48.506Z,10.20
2018-07-14T11:46:16.881Z,17.30
2018-07-14T11:48:45.837Z,13.53
2018-07-14T11:51:14.279Z,10.85
2018-07-14T11:53:42.699Z,11.48
2018-07-14T11:56:11.102Z,12.43
2018-07-14T11:58:39.419Z,15.32
2018-07-14T12:01:07.869Z,26.33
2018-07-14T12:03:38.965Z,16.85
2018-07-14T12:06:07.238Z,21.20
2018-07-14T12:08:37.284Z,16.60
2018-07-14T12:11:05.991Z,15.25
2018-07-14T12:13:34.412Z,19.05
2018-07-14T12:16:02.748Z,19.87
2018-07-14T12:18:31.130Z,21.55
2018-07-14T12:20:59.508Z,34.53
2018-07-14T12:23:27.946Z,18.27
2018-07-14T12:25:57.147Z,14.10
2018-07-14T12:28:25.575Z,23.30
2018-07-14T12:30:54.007Z,15.88
2018-07-14T12:33:25.567Z,12.20
2018-07-14T12:35:53.943Z,12.58
2018-07-14T12:38:22.468Z,11.00
2018-07-14T12:40:50.947Z,16.02
2018-07-14T12:43:19.469Z,10.30
2018-07-14T12:45:47.945Z,11.33
2018-07-14T12:48:16.556Z,12.30
2018-07-14T12:50:44.908Z,12.15
2018-07-14T12:53:13.312Z,13.08
2018-07-14T12:55:42.120Z,9.80
2018-07-14T12:58:10.591Z,13.28
2018-07-14T13:00:38.994Z,8.00
2018-07-14T13:03:07.599Z,8.55
2018-07-14T13:05:35.938Z,8.73
2018-07-14T13:08:06.146Z,8.90
2018-07-14T13:10:35.411Z,9.00
2018-07-14T13:13:03.794Z,10.15
2018-07-14T13:15:32.189Z,9.58
2018-07-14T13:18:00.554Z,7.75
2018-07-14T13:20:28.918Z,11.03
2018-07-14T13:22:57.448Z,7.75
2018-07-14T13:25:26.767Z,13.15
2018-07-14T13:27:55.395Z,10.40
2018-07-14T13:30:23.688Z,7.92
2018-07-14T13:32:55.987Z,8.00
2018-07-14T13:35:24.427Z,8.50
2018-07-14T13:37:52.932Z,7.10
2018-07-14T13:40:21.657Z,5.97
2018-07-14T13:42:50.155Z,7.28
2018-07-14T13:45:18.459Z,7.05
2018-07-14T13:47:47.896Z,10.80
2018-07-14T13:50:16.426Z,5.95
2018-07-14T13:52:44.452Z,7.95
2018-07-14T13:55:13.040Z,5.65
2018-07-14T13:57:41.410Z,8.40
2018-07-14T14:00:10.223Z,7.67
2018-07-14T14:02:38.803Z,6.87
2018-07-14T14:05:07.184Z,6.70
2018-07-14T14:07:38.216Z,5.83
2018-07-14T14:10:06.595Z,5.50
2018-07-14T14:12:35.005Z,7.37
2018-07-14T14:15:03.534Z,6.53
2018-07-14T14:17:31.974Z,6.58
2018-07-14T14:20:00.555Z,9.05
2018-07-14T14:22:28.890Z,6.03
2018-07-14T14:24:57.279Z,5.55
2018-07-14T14:27:25.733Z,7.90
2018-07-14T14:29:54.586Z,5.92
2018-07-14T14:32:22.939Z,7.33
2018-07-14T14:34:51.392Z,5.33
2018-07-14T14:37:19.851Z,7.83
2018-07-14T14:39:48.272Z,7.37
2018-07-14T14:42:16.657Z,4.53
2018-07-14T14:44:45.344Z,6.75
2018-07-14T14:47:14.270Z,6.05
2018-07-14T14:49:42.596Z,6.53
2018-07-14T14:52:11.796Z,7.50
2018-07-14T14:54:40.139Z,4.37
2018-07-14T14:57:08.653Z,6.70
2018-07-14T14:59:36.934Z,4.92
2018-07-14T15:02:05.372Z,5.05
2018-07-14T15:04:33.765Z,4.42
2018-07-14T15:07:02.495Z,4.55
2018-07-14T15:09:32.327Z,4.80
2018-07-14T15:12:01.028Z,5.42
2018-07-14T15:14:29.502Z,4.40
2018-07-14T15:16:58.222Z,4.35
2018-07-14T15:19:26.642Z,5.42
2018-07-14T15:21:55.639Z,6.70
2018-07-14T15:24:23.910Z,4.87
2018-07-14T15:26:52.387Z,7.42
2018-07-14T15:29:21.646Z,4.40
2018-07-14T15:31:50.027Z,3.98
2018-07-14T15:34:18.392Z,4.65
2018-07-14T15:36:46.828Z,5.55
2018-07-14T15:39:15.103Z,4.72
2018-07-14T15:41:43.625Z,5.15
2018-07-14T15:44:12.031Z,4.58
2018-07-14T15:46:40.397Z,4.50
2018-07-14T15:49:08.839Z,4.53
2018-07-14T15:51:37.620Z,4.72
2018-07-14T15:54:06.304Z,5.70
2018-07-14T15:56:34.723Z,3.72
2018-07-14T15:59:03.277Z,4.87
2018-07-14T16:01:31.889Z,3.98
2018-07-14T16:04:00.327Z,3.67
2018-07-14T16:06:29.730Z,4.03
2018-07-14T16:08:59.605Z,4.35
2018-07-14T16:11:28.274Z,4.92
2018-07-14T16:13:56.329Z,4.72
2018-07-14T16:16:24.789Z,4.53
2018-07-14T16:18:53.213Z,5.58
2018-07-14T16:21:21.591Z,3.08
2018-07-14T16:23:49.925Z,3.40
2018-07-14T16:26:18.303Z,3.52
2018-07-14T16:28:46.895Z,4.22
2018-07-14T16:31:15.203Z,3.67
2018-07-14T16:33:43.531Z,3.83
2018-07-14T16:36:12.377Z,3.70
2018-07-14T16:38:40.750Z,2.90
2018-07-14T16:41:09.190Z,3.65
2018-07-14T16:43:38.706Z,5.25
2018-07-14T16:46:07.158Z,3.20
2018-07-14T16:48:35.547Z,3.20
2018-07-14T16:51:04.240Z,2.83
2018-07-14T16:53:32.819Z,3.02
2018-07-14T16:56:01.203Z,3.52
2018-07-14T16:58:29.589Z,2.65
2018-07-14T17:01:04.625Z,4.53
2018-07-14T17:03:33.368Z,2.92
2018-07-14T17:06:01.998Z,2.77
2018-07-14T17:08:31.837Z,3.15
2018-07-14T17:11:00.392Z,2.75
2018-07-14T17:13:28.914Z,3.27
2018-07-14T17:15:57.770Z,3.30
2018-07-14T17:18:26.075Z,3.22
2018-07-14T17:20:54.493Z,2.83
2018-07-14T17:23:23.024Z,3.35
2018-07-14T17:25:51.383Z,4.05
2018-07-14T17:28:19.736Z,3.08
2018-07-14T17:30:48.702Z,3.02
2018-07-14T17:33:17.179Z,3.22
2018-07-14T17:35:45.554Z,3.83
2018-07-14T17:38:14.022Z,3.10
2018-07-14T17:40:42.427Z,3.15
2018-07-14T17:43:10.758Z,2.55
2018-07-14T17:45:39.445Z,2.62
2018-07-14T17:48:08.282Z,2.77
2018-07-14T17:50:37.025Z,2.70
2018-07-14T17:53:05.499Z,2.45
2018-07-14T17:55:34.163Z,3.12
2018-07-14T17:58:02.546Z,3.52
2018-07-14T18:00:30.939Z,20.55
2018-07-14T18:02:59.322Z,13.30
2018-07-14T18:05:27.807Z,56.50
2018-07-14T18:07:57.632Z,28.65
2018-07-14T18:10:26.018Z,14.85
2018-07-14T18:12:54.555Z,15.40
2018-07-14T18:15:22.976Z,8.70
2018-07-14T18:17:51.396Z,6.85
2018-07-14T18:20:20.791Z,5.78
2018-07-14T18:22:50.471Z,4.40
2018-07-14T18:25:19.355Z,5.67
2018-07-14T18:27:48.702Z,8.35
2018-07-14T18:30:17.542Z,17.12
2018-07-14T18:32:46.193Z,8.45
2018-07-14T18:35:15.273Z,4.95
2018-07-14T18:37:44.115Z,9.15
2018-07-14T18:40:12.967Z,11.63
2018-07-14T18:42:41.568Z,4.83
2018-07-14T18:45:10.163Z,5.37
2018-07-14T18:47:39.977Z,7.15
2018-07-14T18:50:08.792Z,5.75
2018-07-14T18:52:37.909Z,6.03
2018-07-14T18:55:07.027Z,7.95
2018-07-14T18:57:35.819Z,6.10
2018-07-14T19:00:04.488Z,5.62
2018-07-14T19:02:33.479Z,5.37
2018-07-14T19:05:01.971Z,7.55
2018-07-14T19:07:34.291Z,3.20
2018-07-14T19:10:03.007Z,6.10
2018-07-14T19:12:31.812Z,27.48
2018-07-14T19:15:01.034Z,8.85
2018-07-14T19:17:29.624Z,15.93
2018-07-14T19:19:58.297Z,8.00
2018-07-14T19:22:26.769Z,9.03
2018-07-14T19:24:55.416Z,7.75
2018-07-14T19:27:24.396Z,6.70
2018-07-14T19:29:53.397Z,9.43
2018-07-14T19:32:21.647Z,7.85
2018-07-14T19:34:50.050Z,10.23
2018-07-14T19:37:18.293Z,6.62
2018-07-14T19:39:46.562Z,7.87
2018-07-14T19:42:15.110Z,6.75
2018-07-14T19:44:44.245Z,9.30
2018-07-14T19:47:12.794Z,10.38
2018-07-14T19:49:42.179Z,9.18
2018-07-14T19:52:10.469Z,11.45
2018-07-14T19:54:38.748Z,12.40
2018-07-14T19:57:07.140Z,5.83
2018-07-14T19:59:35.433Z,11.25
2018-07-14T20:02:03.754Z,10.60
2018-07-14T20:04:32.135Z,9.33
2018-07-14T20:07:00.418Z,5.47
2018-07-14T20:09:30.435Z,9.38
2018-07-14T20:11:59.039Z,28.17
2018-07-14T20:14:27.437Z,17.50
2018-07-14T20:16:56.116Z,28.30
2018-07-14T20:19:24.595Z,24.35
2018-07-14T20:21:53.458Z,10.65
2018-07-14T20:24:21.937Z,10.30
2018-07-14T20:26:50.749Z,9.63
2018-07-14T20:29:19.218Z,10.72
2018-07-14T20:31:47.595Z,7.60
2018-07-14T20:34:16.334Z,9.90
2018-07-14T20:36:44.609Z,9.80
2018-07-14T20:39:13.051Z,8.93
2018-07-14T20:41:41.886Z,10.45
2018-07-14T20:44:10.422Z,11.50
2018-07-14T20:46:38.794Z,7.62
2018-07-14T20:49:07.290Z,9.90
2018-07-14T20:51:35.291Z,8.45
2018-07-14T20:54:03.673Z,12.82
2018-07-14T20:56:32.037Z,12.35
2018-07-14T20:59:00.470Z,9.83
2018-07-14T21:01:28.936Z,13.03
2018-07-14T21:03:58.401Z,9.48
2018-07-14T21:06:26.749Z,8.93
2018-07-14T21:08:56.674Z,5.58
2018-07-14T21:11:25.542Z,9.70
2018-07-14T21:13:53.815Z,11.70
2018-07-14T21:16:22.150Z,8.65
2018-07-14T21:18:50.537Z,7.60
2018-07-14T21:21:19.018Z,8.88
2018-07-14T21:23:47.350Z,10.18
2018-07-14T21:26:16.039Z,7.25
2018-07-14T21:28:44.277Z,8.10
2018-07-14T21:31:12.586Z,7.03
2018-07-14T21:33:41.267Z,6.08
2018-07-14T21:36:09.518Z,12.70
2018-07-14T21:38:37.828Z,7.50
2018-07-14T21:41:06.857Z,6.30
2018-07-14T21:43:35.134Z,8.33
2018-07-14T21:46:03.516Z,6.55
2018-07-14T21:48:32.099Z,7.75
2018-07-14T21:51:00.366Z,9.98
2018-07-14T21:53:28.635Z,6.78
2018-07-14T21:55:57.391Z,6.78
2018-07-14T21:58:25.681Z,6.92
2018-07-14T22:01:04.494Z,7.45
2018-07-14T22:03:34.001Z,10.25
2018-07-14T22:06:02.656Z,7.03
2018-07-14T22:08:32.302Z,7.87
2018-07-14T22:11:01.183Z,8.38
2018-07-14T22:13:29.732Z,5.28
2018-07-14T22:15:57.986Z,6.60
2018-07-14T22:18:26.342Z,5.35
2018-07-14T22:20:54.773Z,7.35
2018-07-14T22:23:23.050Z,5.92
2018-07-14T22:25:51.418Z,6.03
2018-07-14T22:28:20.282Z,7.72
2018-07-14T22:30:48.788Z,7.10
2018-07-14T22:33:17.146Z,6.17
2018-07-14T22:35:45.487Z,6.72
2018-07-14T22:38:13.735Z,8.73
2018-07-14T22:40:42.042Z,6.05
2018-07-14T22:43:10.378Z,5.53
2018-07-14T22:45:38.634Z,6.83
2018-07-14T22:48:06.890Z,5.75
2018-07-14T22:50:36.170Z,7.15
2018-07-14T22:53:04.476Z,5.03
2018-07-14T22:55:32.453Z,4.30
2018-07-14T22:58:03.250Z,4.55
2018-07-14T23:00:31.534Z,4.75
2018-07-14T23:02:59.801Z,4.67
2018-07-14T23:05:28.149Z,5.03
2018-07-14T23:07:58.311Z,4.97
2018-07-14T23:10:26.569Z,4.50
2018-07-14T23:12:55.480Z,3.80
2018-07-14T23:15:23.931Z,5.40
2018-07-14T23:17:52.293Z,6.20
2018-07-14T23:20:20.929Z,4.67
2018-07-14T23:22:49.194Z,4.72
2018-07-14T23:25:17.525Z,3.52
2018-07-14T23:27:46.878Z,4.03
2018-07-14T23:30:15.243Z,4.47
2018-07-14T23:32:43.512Z,4.70
2018-07-14T23:35:11.839Z,4.67
2018-07-14T23:37:40.075Z,3.85
2018-07-14T23:40:08.434Z,4.22
2018-07-14T23:42:37.157Z,3.95
2018-07-14T23:45:05.448Z,4.17
2018-07-14T23:47:33.831Z,3.77
2018-07-14T23:50:04.230Z,3.83
2018-07-14T23:52:32.551Z,3.58
2018-07-14T23:55:00.979Z,4.53
2018-07-14T23:57:29.248Z,6.72
2018-07-14T23:59:57.508Z,4.30
